Flight Track Log - Related Links

Times and Time Zones

All times are in EDT time to prevent confusion due to time zone crossing. See the SKW5516 flight status page for this flight to view local times or setup timezone preferences in your user account.

Time Position Orientation Groundspeed Altitude Reporting Facility
EDT Latitude Longitude Course Direction KTS MPH feet Rate Location/Type
Tue 09:42:05 AM 44.5411 -108.9914 157° South 206 237 6,300  Level Salt Lake Center
Tue 09:43:06 AM 44.5953 -108.9586 23° Northeast 208 239 8,600 2,115 Climbing Salt Lake Center
Tue 09:44:00 AM 44.0199 -108.6123 159° South  Level FlightAware Approximate
Tue 09:44:07 AM 44.5567 -108.9067 136° Southeast 233 268 10,600  Level Salt Lake Center
Tue 09:45:00 AM 43.9197 -108.5559 157° South  Level FlightAware Approximate
Tue 09:45:08 AM 44.4819 -108.8881 170° South 240 276 12,900  Level Salt Lake Center
Tue 09:46:00 AM 43.8201 -108.4978 157° South  Level FlightAware Approximate
Tue 09:46:09 AM 44.4106 -108.8450 157° South 278 320 14,400  Level Salt Lake Center
Tue 09:47:00 AM 43.7204 -108.4401 157° South  Level FlightAware Approximate
Tue 09:47:11 AM 44.3300 -108.7983 157° South 315 362 16,200  Level Salt Lake Center
Tue 09:48:12 AM 44.2353 -108.7442 158° South 326 375 18,500 1,820 Climbing Salt Lake Center
Tue 09:49:13 AM 44.1517 -108.6967 158° South 331 381 19,900 1,366 Climbing Salt Lake Center
Tue 09:50:15 AM 44.0478 -108.6375 158° South 346 398 21,300 1,317 Climbing Salt Lake Center
Tue 09:51:16 AM 43.9556 -108.5839 157° South 364 419 22,600 1,122 Climbing Salt Lake Center
Tue 09:52:18 AM 43.8617 -108.5300 158° South 377 434 23,600 1,122 Climbing Salt Lake Center
Tue 09:53:19 AM 43.7497 -108.4661 158° South 387 445 24,900 1,082 Climbing Salt Lake Center
Tue 09:54:20 AM 43.6519 -108.4111 158° South 394 453 25,800 976 Climbing Salt Lake Center
Tue 09:55:22 AM 43.5358 -108.3453 158° South 401 461 26,900 976 Climbing Salt Lake Center
Tue 09:56:23 AM 43.4389 -108.2789 154° Southeast 406 467 27,800 780 Climbing Salt Lake Center
Tue 09:57:25 AM 43.3328 -108.1647 142° Southeast 430 495 28,500 732 Climbing Salt Lake Center
Tue 09:58:26 AM 43.2417 -108.0689 143° Southeast 429 494 29,300 732 Climbing Salt Lake Center
Tue 09:59:28 AM 43.1503 -107.9711 142° Southeast 435 501 30,000 585 Climbing Salt Lake Center
Tue 10:00:29 AM 43.0433 -107.8592 143° Southeast 433 498 30,500 488 Climbing Salt Lake Center
Tue 10:01:31 AM 42.9486 -107.7606 143° Southeast 444 511 31,000 242 Climbing Salt Lake Center
Tue 10:02:33 AM 42.8394 -107.6444 142° Southeast 447 514 31,000  Level Salt Lake Center
Tue 10:03:34 AM 42.7400 -107.5411 143° Southeast 461 531 31,000  Level Salt Lake Center
Tue 10:04:36 AM 42.6392 -107.4369 143° Southeast 470 541 31,000  Level Salt Lake Center
Tue 10:04:55 AM 42.6044 -107.4017 143° Southeast 472 543 31,000  Level Denver Center
Tue 10:05:37 AM 42.5222 -107.3156 142° Southeast 472 543 31,000  Level Salt Lake Center
Tue 10:06:39 AM 42.4208 -107.2117 143° Southeast 475 547 31,000  Level Salt Lake Center
Tue 10:07:10 AM 42.3517 -107.1419 143° Southeast 476 548 31,000  Level Denver Center
Tue 10:08:12 AM 42.2514 -107.0383 143° Southeast 474 545 31,000  Level Denver Center
Tue 10:09:13 AM 42.1497 -106.9350 143° Southeast 476 548 31,000  Level Denver Center
Tue 10:10:15 AM 42.0303 -106.8167 144° Southeast 477 549 31,000  Level Denver Center
Tue 10:11:16 AM 41.9297 -106.7153 143° Southeast 473 544 31,000  Level Denver Center
Tue 10:12:18 AM 41.8133 -106.5986 143° Southeast 467 537 31,000  Level Denver Center
Tue 10:13:20 AM 41.7136 -106.5000 144° Southeast 465 535 31,000  Level Denver Center
Tue 10:14:21 AM 41.6067 -106.3933 143° Southeast 461 531 31,000  Level Denver Center
Tue 10:15:22 AM 41.5250 -106.3131 144° Southeast 459 528 31,000  Level Denver Center
Tue 10:16:24 AM 41.3836 -106.2136 152° Southeast 447 514 31,000  Level Denver Center
Tue 10:17:26 AM 41.2625 -106.1617 162° South 442 509 31,000  Level Denver Center
Tue 10:18:28 AM 41.1425 -106.1125 163° South 438 504 31,000 -244 Level Denver Center
Tue 10:19:29 AM 41.0331 -106.0497 157° South 442 509 30,500 -780 Descending Denver Center
Tue 10:20:31 AM 40.9106 -105.9792 156° South 454 522 29,400 -968 Descending Denver Center
Tue 10:21:33 AM 40.8278 -105.8453 129° Southeast 473 544 28,500 -1,016 Descending Denver Center
Tue 10:22:35 AM 40.7508 -105.7083 127° Southeast 465 535 27,300 -1,317 Descending Denver Center
Tue 10:23:36 AM 40.6778 -105.5739 126° Southeast 455 524 25,800 -1,463 Descending Denver Center
Tue 10:24:38 AM 40.6072 -105.4469 126° Southeast 436 502 24,300 -1,597 Descending Denver Center
Tue 10:25:40 AM 40.5269 -105.2994 126° Southeast 416 479 22,500 -1,645 Descending Denver Center
Tue 10:26:42 AM 40.4483 -105.2033 137° Southeast 401 461 20,900 -1,694 Descending Denver Center
Tue 10:27:44 AM 40.3636 -105.1331 148° Southeast 364 419 19,000 -1,854 Descending Denver Center
Tue 10:28:45 AM 40.2717 -105.0614 149° Southeast 358 412 17,100 -1,805 Descending Denver Center
Tue 10:29:47 AM 40.1875 -104.9939 148° Southeast 355 409 15,300 -1,210 Descending Denver Center
Tue 10:30:49 AM 40.1008 -104.9242 148° Southeast 342 394 14,600 -677 Descending Denver Center
Tue 10:31:51 AM 40.0331 -104.8417 137° Southeast 337 388 13,900 -823 Descending Denver Center
Tue 10:32:53 AM 39.9836 -104.7419 123° Southeast 333 383 12,900 -1,016 Descending Denver Center
Tue 10:33:55 AM 39.9814 -104.6236 91° East 302 348 11,800 -919 Descending Denver Center
Tue 10:34:57 AM 39.9819 -104.5236 90° East 278 320 11,000 -435 Descending Denver Center
Tue 10:35:59 AM 39.9844 -104.4186 88° East 270 311 10,900 -484 Descending Denver Center
Tue 10:37:01 AM 39.9861 -104.3311 89° East 245 282 10,000 -532 Descending Denver Center
Tue 10:38:03 AM 39.9756 -104.2622 101° East 230 265 9,800 -484 Descending Denver Center
Tue 10:39:05 AM 39.9214 -104.2078 142° Southeast 229 264 9,000 -353 Descending Denver Center
Tue 10:40:19 AM 39.8622 -104.2169 187° South 238 274 9,000  Level Denver Center
Tue 10:41:22 AM 39.8753 -104.3122 280° West 223 257 9,000 -144 Level Denver Center
Tue 10:42:24 AM 39.8750 -104.3978 270° West 222 255 8,700 -677 Descending Denver Center
Tue 10:43:26 AM 39.8756 -104.4700 271° West 203 234 7,600 -1,065 Descending Denver Center
Tue 10:44:28 AM 39.8764 -104.5425 271° West 189 217 6,500 -919 Descending Denver Center
Tue 10:45:30 AM 39.8769 -104.5994 271° West 164 189 5,700 -532 Descending Denver Center
Tue 10:46:32 AM 39.8772 -104.6464 270° West 131 151 5,400 -290 Descending Denver Center

Login

Don't have an account? Register now (free) for customized features, flight alerts, and more!